Time;durP1;ratioP1;P1;durP2;ratioP2;P2;SDS_P1;SDS_P2;PMS_P1;PMS_P2;Temp;Humidity;BMP_temperature;BMP_pressure;BME280_temperature;BME280_humidity;BME280_pressure;Samples;Min_cycle;Max_cycle;Signal;HPM_P1;HPM_P2
2021/08/20 00:02:12;;;;;;;4.00;2.00;;;;;;;;;;4989749;28;20096;-53
2021/08/20 00:04:39;;;;;;;4.05;2.10;;;;;;;;;;4991238;28;20042;-51
2021/08/20 00:07:06;;;;;;;3.20;1.85;;;;;;;;;;4977799;28;20552;-50
2021/08/20 00:09:32;;;;;;;3.22;2.13;;;;;;;;;;4972298;28;20125;-50
2021/08/20 00:12:00;;;;;;;4.15;2.33;;;;;;;;;;4972556;28;20062;-49
2021/08/20 00:14:27;;;;;;;2.67;1.90;;;;;;;;;;4971991;28;20071;-50
2021/08/20 00:16:53;;;;;;;4.07;2.33;;;;;;;;;;4986810;28;20049;-48
2021/08/20 00:19:20;;;;;;;3.42;2.08;;;;;;;;;;4989929;28;20480;-50
2021/08/20 00:21:46;;;;;;;3.28;2.20;;;;;;;;;;4992165;28;20439;-50
2021/08/20 00:24:14;;;;;;;3.03;2.20;;;;;;;;;;4991110;28;20046;-52
2021/08/20 00:26:42;;;;;;;2.95;1.90;;;;;;;;;;4990214;28;20046;-49
2021/08/20 00:29:09;;;;;;;5.45;2.10;;;;;;;;;;4977886;28;20519;-52
2021/08/20 00:31:36;;;;;;;3.30;2.20;;;;;;;;;;4986447;28;20100;-48
2021/08/20 00:34:03;;;;;;;3.03;2.15;;;;;;;;;;4990160;28;20656;-50
2021/08/20 00:36:31;;;;;;;3.67;2.30;;;;;;;;;;4974265;28;20134;-48
2021/08/20 00:38:58;;;;;;;2.80;2.00;;;;;;;;;;4982442;28;20157;-49
2021/08/20 00:41:25;;;;;;;2.90;2.08;;;;;;;;;;4973760;28;20432;-50
2021/08/20 00:43:52;;;;;;;3.40;2.15;;;;;;;;;;4991216;28;20510;-50
2021/08/20 00:46:19;;;;;;;2.60;1.90;;;;;;;;;;4990667;28;20077;-50
2021/08/20 00:48:46;;;;;;;4.32;2.30;;;;;;;;;;4976766;28;20102;-50
2021/08/20 00:51:12;;;;;;;3.38;1.95;;;;;;;;;;4983207;28;20046;-52
2021/08/20 00:53:39;;;;;;;3.78;2.25;;;;;;;;;;4991476;28;20046;-49
2021/08/20 00:56:06;;;;;;;5.32;2.40;;;;;;;;;;4988017;28;20039;-50
2021/08/20 00:58:33;;;;;;;3.53;2.20;;;;;;;;;;4986413;28;20038;-49
2021/08/20 01:01:02;;;;;;;3.67;2.20;;;;;;;;;;4991386;28;20038;-51
2021/08/20 01:03:29;;;;;;;3.30;2.30;;;;;;;;;;4990163;28;20467;-49
2021/08/20 01:05:56;;;;;;;3.00;2.20;;;;;;;;;;4988771;28;20046;-49
2021/08/20 01:08:25;;;;;;;2.95;2.15;;;;;;;;;;4970521;28;20047;-49
2021/08/20 01:10:52;;;;;;;5.35;2.33;;;;;;;;;;4985448;28;20479;-50
2021/08/20 01:13:19;;;;;;;4.07;2.33;;;;;;;;;;4990721;28;20050;-51
2021/08/20 01:15:47;;;;;;;5.60;2.15;;;;;;;;;;4989333;28;20042;-51
2021/08/20 01:18:24;;;;;;;3.72;2.38;;;;;;;;;;4986602;28;20122;-47
2021/08/20 01:20:54;;;;;;;3.88;2.70;;;;;;;;;;5000632;28;20117;-50
2021/08/20 01:23:23;;;;;;;4.55;2.40;;;;;;;;;;4991222;28;20046;-54
2021/08/20 01:25:50;;;;;;;4.80;2.35;;;;;;;;;;4960546;28;20516;-51
2021/08/20 01:28:18;;;;;;;4.10;2.50;;;;;;;;;;4984146;28;20054;-49
2021/08/20 01:30:45;;;;;;;3.55;2.20;;;;;;;;;;4989779;28;20078;-50
2021/08/20 01:33:11;;;;;;;4.25;2.70;;;;;;;;;;4988254;28;20042;-50
2021/08/20 01:35:40;;;;;;;3.60;2.67;;;;;;;;;;4989413;28;20050;-49
2021/08/20 01:38:08;;;;;;;3.53;2.47;;;;;;;;;;4987611;28;20412;-54
2021/08/20 01:40:34;;;;;;;3.58;2.20;;;;;;;;;;4980796;28;20445;-49
2021/08/20 01:43:03;;;;;;;4.00;2.53;;;;;;;;;;4972957;28;20046;-49
2021/08/20 01:45:30;;;;;;;3.38;2.40;;;;;;;;;;4990858;28;20104;-49
2021/08/20 01:47:56;;;;;;;4.20;2.50;;;;;;;;;;4980175;28;20420;-51
2021/08/20 01:50:23;;;;;;;3.88;2.60;;;;;;;;;;5004004;28;20498;-49
2021/08/20 01:52:50;;;;;;;5.15;2.72;;;;;;;;;;4994392;28;20047;-51
2021/08/20 01:55:17;;;;;;;3.83;2.63;;;;;;;;;;4989847;28;20038;-50
2021/08/20 01:57:44;;;;;;;3.13;2.22;;;;;;;;;;4992717;28;20042;-49
2021/08/20 02:00:12;;;;;;;4.20;2.30;;;;;;;;;;4992923;28;20038;-48
2021/08/20 02:02:40;;;;;;;5.32;2.60;;;;;;;;;;4993543;28;20061;-50
2021/08/20 02:05:13;;;;;;;3.95;2.50;;;;;;;;;;4988992;28;20055;-50
2021/08/20 02:07:40;;;;;;;3.63;2.45;;;;;;;;;;5001371;28;20041;-50
2021/08/20 02:10:09;;;;;;;3.08;2.40;;;;;;;;;;4986877;28;20133;-49
2021/08/20 02:12:36;;;;;;;2.80;2.40;;;;;;;;;;4994138;28;20048;-49
2021/08/20 02:15:06;;;;;;;5.10;2.80;;;;;;;;;;4991914;28;20050;-50
2021/08/20 02:17:33;;;;;;;4.55;3.10;;;;;;;;;;4977270;28;20052;-51
2021/08/20 02:20:01;;;;;;;6.30;3.05;;;;;;;;;;4990891;28;20038;-49
2021/08/20 02:22:27;;;;;;;4.63;2.40;;;;;;;;;;4993080;28;20042;-52
2021/08/20 02:24:55;;;;;;;4.82;3.13;;;;;;;;;;4988351;28;20039;-48
2021/08/20 02:27:22;;;;;;;4.07;2.78;;;;;;;;;;4996267;28;20038;-51
2021/08/20 02:29:54;;;;;;;5.45;2.65;;;;;;;;;;4996904;28;20154;-51
2021/08/20 02:32:22;;;;;;;5.25;2.92;;;;;;;;;;4990569;28;20030;-52
2021/08/20 02:34:48;;;;;;;5.32;2.70;;;;;;;;;;4972725;28;20117;-49
2021/08/20 02:37:15;;;;;;;3.17;2.50;;;;;;;;;;4977765;28;20042;-50
2021/08/20 02:39:42;;;;;;;4.38;2.60;;;;;;;;;;4988263;28;20039;-50
2021/08/20 02:42:10;;;;;;;4.07;2.63;;;;;;;;;;4992119;28;20427;-51
2021/08/20 02:44:37;;;;;;;4.10;2.58;;;;;;;;;;4991467;28;20042;-48
2021/08/20 02:47:04;;;;;;;3.80;2.80;;;;;;;;;;4990695;28;20169;-49
2021/08/20 02:49:30;;;;;;;4.32;3.00;;;;;;;;;;5007279;28;20037;-51
2021/08/20 02:51:57;;;;;;;4.68;2.63;;;;;;;;;;5008785;28;20121;-49
2021/08/20 02:54:29;;;;;;;5.38;3.00;;;;;;;;;;5007660;28;20121;-52
2021/08/20 02:56:56;;;;;;;4.75;2.65;;;;;;;;;;5002761;28;20069;-50
2021/08/20 02:59:25;;;;;;;4.70;2.83;;;;;;;;;;4991527;28;20041;-49
2021/08/20 03:01:55;;;;;;;3.47;2.47;;;;;;;;;;4992574;28;20046;-48
2021/08/20 03:04:23;;;;;;;4.10;2.55;;;;;;;;;;4988369;28;20192;-48
2021/08/20 03:06:51;;;;;;;4.38;2.60;;;;;;;;;;4972724;28;20058;-51
2021/08/20 03:09:38;;;;;;;4.22;2.67;;;;;;;;;;5001032;28;20352;-48
2021/08/20 03:12:08;;;;;;;6.03;2.88;;;;;;;;;;4992090;28;20440;-51
2021/08/20 03:14:43;;;;;;;7.18;2.92;;;;;;;;;;4990772;28;20138;-49
2021/08/20 03:17:09;;;;;;;3.90;2.88;;;;;;;;;;4984962;28;20515;-48
2021/08/20 03:19:36;;;;;;;4.15;2.92;;;;;;;;;;5004011;28;20118;-49
2021/08/20 03:22:07;;;;;;;5.07;3.00;;;;;;;;;;5007413;28;20488;-51
2021/08/20 03:24:45;;;;;;;4.70;3.25;;;;;;;;;;5067736;28;20897;-49
2021/08/20 03:27:23;;;;;;;4.70;3.00;;;;;;;;;;5063061;28;20431;-50
2021/08/20 03:30:19;;;;;;;4.30;2.88;;;;;;;;;;5088143;27;20414;-49
2021/08/20 03:33:10;;;;;;;5.28;3.22;;;;;;;;;;5088505;27;20413;-48
2021/08/20 03:35:51;;;;;;;5.82;3.63;;;;;;;;;;5060755;28;20432;-47
2021/08/20 03:38:31;;;;;;;15.77;3.67;;;;;;;;;;5066950;28;20454;-48
2021/08/20 03:41:09;;;;;;;5.88;3.47;;;;;;;;;;5067980;28;20880;-48
2021/08/20 03:44:06;;;;;;;5.88;3.88;;;;;;;;;;5149335;27;20147;-49
2021/08/20 03:46:51;;;;;;;5.90;3.83;;;;;;;;;;5063149;28;20483;-50
2021/08/20 03:49:32;;;;;;;6.30;4.60;;;;;;;;;;5068962;28;20414;-50
2021/08/20 03:52:11;;;;;;;7.05;4.10;;;;;;;;;;5067706;28;20422;-51
2021/08/20 03:54:52;;;;;;;6.38;4.20;;;;;;;;;;5067793;28;20793;-48
2021/08/20 03:57:32;;;;;;;5.88;3.88;;;;;;;;;;5086577;27;20426;-49
2021/08/20 04:00:10;;;;;;;4.70;3.50;;;;;;;;;;5067569;28;20426;-49
2021/08/20 04:02:55;;;;;;;5.22;3.40;;;;;;;;;;5061717;28;20412;-50
2021/08/20 04:05:34;;;;;;;5.00;3.17;;;;;;;;;;5052854;28;20430;-50
2021/08/20 04:08:23;;;;;;;4.70;3.70;;;;;;;;;;5128125;27;20131;-47
2021/08/20 04:11:18;;;;;;;5.38;4.30;;;;;;;;;;5068187;28;20415;-49
2021/08/20 04:14:07;;;;;;;6.25;4.03;;;;;;;;;;5067158;28;20820;-54
2021/08/20 04:16:46;;;;;;;6.32;4.40;;;;;;;;;;5067782;28;20919;-51
2021/08/20 04:19:24;;;;;;;6.38;4.30;;;;;;;;;;5051549;28;20413;-51
2021/08/20 04:22:02;;;;;;;6.50;4.47;;;;;;;;;;5068034;28;20415;-51
2021/08/20 04:24:43;;;;;;;6.75;4.15;;;;;;;;;;5088133;27;20429;-51
2021/08/20 04:27:47;;;;;;;8.60;4.10;;;;;;;;;;5068433;28;20459;-48
2021/08/20 04:30:37;;;;;;;7.03;4.28;;;;;;;;;;5067616;28;20420;-49
2021/08/20 04:33:35;;;;;;;5.45;3.97;;;;;;;;;;5068639;28;20162;-48
2021/08/20 04:36:47;;;;;;;7.82;3.63;;;;;;;;;;5067761;28;20855;-50
2021/08/20 04:39:51;;;;;;;5.10;3.88;;;;;;;;;;5067039;28;20970;-50
2021/08/20 04:42:31;;;;;;;4.25;3.15;;;;;;;;;;5068118;28;20422;-48
2021/08/20 04:45:35;;;;;;;5.90;3.55;;;;;;;;;;5067447;28;20431;-53
2021/08/20 04:48:28;;;;;;;5.60;3.85;;;;;;;;;;5078698;28;20423;-49
2021/08/20 04:51:22;;;;;;;7.28;3.75;;;;;;;;;;5068729;28;20473;-49
2021/08/20 04:54:17;;;;;;;6.18;3.83;;;;;;;;;;5108622;27;20416;-49
2021/08/20 04:57:04;;;;;;;6.07;4.03;;;;;;;;;;5050840;28;20910;-47
2021/08/20 04:59:55;;;;;;;5.32;4.00;;;;;;;;;;5089031;27;20420;-51
2021/08/20 05:02:59;;;;;;;7.57;4.20;;;;;;;;;;5108251;27;20810;-52
2021/08/20 05:06:00;;;;;;;6.07;3.92;;;;;;;;;;5191516;27;20431;-50
2021/08/20 05:08:52;;;;;;;7.35;4.00;;;;;;;;;;5091025;27;20437;-52
2021/08/20 05:11:47;;;;;;;6.07;4.22;;;;;;;;;;5129855;27;20907;-48
2021/08/20 05:14:38;;;;;;;5.10;4.00;;;;;;;;;;5088040;27;20482;-51
2021/08/20 05:17:32;;;;;;;6.53;3.83;;;;;;;;;;5088847;27;20158;-50
2021/08/20 05:20:24;;;;;;;10.45;4.47;;;;;;;;;;5129990;27;20158;-47
2021/08/20 05:23:19;;;;;;;6.93;4.75;;;;;;;;;;5181095;27;20459;-47
2021/08/20 05:26:13;;;;;;;8.95;4.95;;;;;;;;;;5191361;27;20397;-50
2021/08/20 05:29:05;;;;;;;6.63;4.70;;;;;;;;;;5082459;27;20448;-49
2021/08/20 05:31:43;;;;;;;7.72;4.72;;;;;;;;;;5128959;27;20364;-47
2021/08/20 05:34:21;;;;;;;7.60;4.60;;;;;;;;;;5128166;27;20144;-48
2021/08/20 05:37:00;;;;;;;8.50;5.15;;;;;;;;;;5113996;27;20144;-49
2021/08/20 05:39:38;;;;;;;7.55;4.60;;;;;;;;;;5124190;27;20211;-48
2021/08/20 05:42:16;;;;;;;8.68;5.15;;;;;;;;;;5129122;27;20506;-49
2021/08/20 05:44:55;;;;;;;6.93;4.82;;;;;;;;;;5128722;27;20581;-49
2021/08/20 05:47:32;;;;;;;5.72;4.50;;;;;;;;;;5128374;27;20139;-48
2021/08/20 05:50:11;;;;;;;7.65;5.05;;;;;;;;;;5129755;27;20131;-49
2021/08/20 05:52:49;;;;;;;8.20;4.43;;;;;;;;;;5126430;27;20135;-49
2021/08/20 05:55:30;;;;;;;8.32;5.10;;;;;;;;;;5127719;27;20132;-50
2021/08/20 05:58:08;;;;;;;10.75;4.35;;;;;;;;;;5070971;28;20445;-50
2021/08/20 06:00:48;;;;;;;7.13;4.60;;;;;;;;;;5068524;28;20799;-49
2021/08/20 06:03:26;;;;;;;7.63;4.70;;;;;;;;;;5078741;27;20431;-52
2021/08/20 06:06:11;;;;;;;8.98;4.50;;;;;;;;;;5066834;28;20434;-48
2021/08/20 06:08:49;;;;;;;9.63;4.63;;;;;;;;;;5064756;28;20437;-49
2021/08/20 06:11:27;;;;;;;6.45;3.97;;;;;;;;;;5067143;28;20438;-49
2021/08/20 06:14:05;;;;;;;6.40;4.70;;;;;;;;;;5051255;28;20435;-52
2021/08/20 06:16:43;;;;;;;8.20;5.25;;;;;;;;;;5064491;28;20497;-52
2021/08/20 06:19:22;;;;;;;7.95;4.82;;;;;;;;;;5065166;28;20422;-48
2021/08/20 06:22:00;;;;;;;6.20;4.72;;;;;;;;;;5065186;28;20431;-48
2021/08/20 06:24:38;;;;;;;7.07;5.20;;;;;;;;;;5062915;28;20420;-51
2021/08/20 06:27:17;;;;;;;6.45;4.53;;;;;;;;;;5107281;27;20412;-54
2021/08/20 06:29:54;;;;;;;10.05;5.00;;;;;;;;;;5086397;27;20850;-52
2021/08/20 06:32:32;;;;;;;7.85;4.43;;;;;;;;;;5048823;28;20938;-50
2021/08/20 06:35:11;;;;;;;8.77;4.43;;;;;;;;;;5064913;28;20438;-52
2021/08/20 06:37:49;;;;;;;7.35;5.20;;;;;;;;;;5086262;27;20425;-51
2021/08/20 06:40:27;;;;;;;9.50;4.70;;;;;;;;;;5057178;28;20413;-51
2021/08/20 06:43:05;;;;;;;8.88;5.03;;;;;;;;;;5055874;28;20421;-53
2021/08/20 06:45:43;;;;;;;8.90;4.70;;;;;;;;;;5064842;28;20439;-49
2021/08/20 06:48:22;;;;;;;7.93;5.75;;;;;;;;;;5063501;28;20468;-52
2021/08/20 06:51:00;;;;;;;8.20;5.82;;;;;;;;;;5067376;28;20434;-48
2021/08/20 06:53:38;;;;;;;7.25;5.10;;;;;;;;;;5052166;28;20967;-50
2021/08/20 06:56:16;;;;;;;7.45;4.70;;;;;;;;;;5126431;27;22000;-46
2021/08/20 06:58:57;;;;;;;8.05;5.30;;;;;;;;;;5055924;28;20424;-51
2021/08/20 07:01:36;;;;;;;7.65;5.40;;;;;;;;;;5105299;27;20931;-52
2021/08/20 07:04:14;;;;;;;6.63;5.00;;;;;;;;;;5046500;28;20918;-52
2021/08/20 07:06:53;;;;;;;6.07;4.28;;;;;;;;;;5123699;27;20491;-54
2021/08/20 07:09:30;;;;;;;6.30;3.95;;;;;;;;;;5055918;28;20434;-54
2021/08/20 07:12:09;;;;;;;5.78;4.15;;;;;;;;;;5041999;28;20448;-47
2021/08/20 07:14:47;;;;;;;6.32;4.20;;;;;;;;;;5054384;28;20475;-48
2021/08/20 07:17:25;;;;;;;8.30;4.53;;;;;;;;;;5058477;28;20435;-49
2021/08/20 07:20:04;;;;;;;7.10;4.20;;;;;;;;;;5067805;28;20430;-49
2021/08/20 07:22:41;;;;;;;7.85;4.53;;;;;;;;;;5066169;28;20454;-48
2021/08/20 07:25:20;;;;;;;7.53;4.55;;;;;;;;;;5066256;28;20434;-50
2021/08/20 07:27:58;;;;;;;7.18;4.30;;;;;;;;;;5068591;28;20907;-51
2021/08/20 07:30:36;;;;;;;9.63;4.38;;;;;;;;;;5068423;28;20419;-49
2021/08/20 07:33:14;;;;;;;8.73;4.40;;;;;;;;;;5054736;28;20453;-47
2021/08/20 07:35:53;;;;;;;6.68;4.40;;;;;;;;;;5071079;28;20431;-49
2021/08/20 07:38:31;;;;;;;7.53;4.75;;;;;;;;;;5044871;28;20429;-51
2021/08/20 07:41:09;;;;;;;9.32;4.72;;;;;;;;;;5073849;28;20417;-48
2021/08/20 07:43:47;;;;;;;7.32;4.72;;;;;;;;;;5078142;28;20406;-53
2021/08/20 07:46:26;;;;;;;9.23;5.47;;;;;;;;;;5115388;27;20422;-50
2021/08/20 07:49:03;;;;;;;7.80;4.80;;;;;;;;;;5073149;28;20960;-50
2021/08/20 07:51:42;;;;;;;6.43;4.53;;;;;;;;;;5078620;28;20480;-54
2021/08/20 07:54:20;;;;;;;5.90;4.53;;;;;;;;;;5079124;28;20423;-54
2021/08/20 07:56:58;;;;;;;6.88;4.47;;;;;;;;;;5128127;27;20430;-52
2021/08/20 07:59:36;;;;;;;10.32;4.90;;;;;;;;;;5076865;28;20409;-54
2021/08/20 08:02:14;;;;;;;8.52;4.88;;;;;;;;;;5125526;27;20427;-53
2021/08/20 08:05:06;;;;;;;7.13;4.35;;;;;;;;;;5080239;27;20434;-53
2021/08/20 08:08:02;;;;;;;6.85;4.22;;;;;;;;;;5148721;27;20153;-53
2021/08/20 08:11:02;;;;;;;7.53;4.97;;;;;;;;;;5142570;27;20427;-52
2021/08/20 08:13:54;;;;;;;7.05;4.28;;;;;;;;;;5088807;27;20412;-51
2021/08/20 08:16:46;;;;;;;9.20;4.15;;;;;;;;;;5128591;27;20421;-53
2021/08/20 08:19:37;;;;;;;5.82;4.43;;;;;;;;;;5076893;27;20444;-50
2021/08/20 08:22:33;;;;;;;6.63;4.57;;;;;;;;;;5146130;27;20160;-54
2021/08/20 08:25:29;;;;;;;7.20;5.22;;;;;;;;;;5184908;27;20403;-51
2021/08/20 08:28:23;;;;;;;8.05;5.28;;;;;;;;;;5107014;27;20504;-53
2021/08/20 08:31:21;;;;;;;7.50;5.75;;;;;;;;;;5033837;27;20540;-49
2021/08/20 08:34:31;;;;;;;9.43;5.88;;;;;;;;;;5100219;27;20443;-53
2021/08/20 08:37:27;;;;;;;9.05;5.72;;;;;;;;;;5177276;27;21056;-49
2021/08/20 08:40:28;;;;;;;8.15;5.43;;;;;;;;;;5127455;27;20421;-53
2021/08/20 08:43:20;;;;;;;9.57;5.95;;;;;;;;;;5102936;27;20484;-51
2021/08/20 08:46:12;;;;;;;9.50;5.50;;;;;;;;;;5129222;27;20831;-51
2021/08/20 08:48:50;;;;;;;7.47;5.32;;;;;;;;;;5058930;28;20424;-51
2021/08/20 08:51:28;;;;;;;9.90;5.53;;;;;;;;;;5068439;28;20465;-50
2021/08/20 08:54:10;;;;;;;6.53;5.00;;;;;;;;;;5068233;28;20404;-47
2021/08/20 08:56:49;;;;;;;7.30;5.10;;;;;;;;;;5068766;28;20404;-50
2021/08/20 08:59:27;;;;;;;8.82;5.63;;;;;;;;;;5068845;28;20403;-50
2021/08/20 09:02:18;;;;;;;10.98;5.85;;;;;;;;;;5068201;28;20408;-48
2021/08/20 09:05:00;;;;;;;6.80;4.95;;;;;;;;;;5064489;28;21066;-48
2021/08/20 09:07:28;;;;;;;7.63;6.38;;;;;;;;;;5048809;28;20037;-53
2021/08/20 09:10:14;;;;;;;9.63;5.78;;;;;;;;;;5050109;28;20427;-48
2021/08/20 09:12:52;;;;;;;10.63;6.10;;;;;;;;;;5068698;28;20407;-51
2021/08/20 09:15:32;;;;;;;12.15;5.40;;;;;;;;;;5129279;27;20426;-52
2021/08/20 09:18:00;;;;;;;8.90;5.93;;;;;;;;;;5122028;28;20601;-47
2021/08/20 09:20:38;;;;;;;6.82;5.40;;;;;;;;;;5068497;28;20430;-48
2021/08/20 09:23:26;;;;;;;7.38;5.82;;;;;;;;;;5068459;28;20859;-49
2021/08/20 09:26:05;;;;;;;9.50;5.70;;;;;;;;;;5098747;27;20530;-49
2021/08/20 09:28:43;;;;;;;8.95;6.03;;;;;;;;;;5108934;27;20168;-49
2021/08/20 09:31:22;;;;;;;10.00;6.05;;;;;;;;;;5068370;28;20162;-50
2021/08/20 09:34:02;;;;;;;14.10;6.35;;;;;;;;;;5067158;28;20423;-53
2021/08/20 09:36:40;;;;;;;7.82;5.80;;;;;;;;;;5068695;28;20415;-52
2021/08/20 09:39:25;;;;;;;9.27;6.18;;;;;;;;;;5057042;28;20429;-50
2021/08/20 09:42:14;;;;;;;7.28;5.13;;;;;;;;;;5069069;28;20411;-48
2021/08/20 09:45:15;;;;;;;8.35;5.30;;;;;;;;;;5068207;28;20548;-52
2021/08/20 09:47:54;;;;;;;7.25;4.70;;;;;;;;;;5050859;28;20428;-51
2021/08/20 09:50:40;;;;;;;8.30;5.00;;;;;;;;;;5068640;28;20415;-49
2021/08/20 09:53:19;;;;;;;6.75;4.97;;;;;;;;;;5068684;28;20407;-52
2021/08/20 09:56:00;;;;;;;6.47;4.20;;;;;;;;;;5055789;28;20421;-51
2021/08/20 09:58:38;;;;;;;8.60;4.95;;;;;;;;;;5068536;28;20419;-51
2021/08/20 10:01:16;;;;;;;6.57;4.30;;;;;;;;;;5068675;28;20414;-48
2021/08/20 10:04:00;;;;;;;7.10;4.80;;;;;;;;;;5060007;28;20506;-52
2021/08/20 10:06:39;;;;;;;7.50;4.70;;;;;;;;;;5068475;28;20881;-50
2021/08/20 10:09:17;;;;;;;6.63;3.90;;;;;;;;;;5056920;28;20436;-47
2021/08/20 10:11:54;;;;;;;4.85;2.85;;;;;;;;;;5109118;27;20409;-50
2021/08/20 10:14:32;;;;;;;5.07;3.70;;;;;;;;;;5068352;28;20414;-48
2021/08/20 10:16:59;;;;;;;5.53;3.63;;;;;;;;;;5056551;28;20045;-51
2021/08/20 10:19:26;;;;;;;2.90;2.00;;;;;;;;;;5048667;28;20414;-51
2021/08/20 10:21:53;;;;;;;3.58;2.10;;;;;;;;;;5048749;28;20128;-48
2021/08/20 10:24:20;;;;;;;3.72;2.42;;;;;;;;;;5047970;28;20029;-50
2021/08/20 10:26:50;;;;;;;3.83;2.28;;;;;;;;;;5048363;28;20045;-52
2021/08/20 10:29:28;;;;;;;4.10;2.60;;;;;;;;;;5048239;28;20128;-51
2021/08/20 10:31:56;;;;;;;4.13;2.50;;;;;;;;;;5048167;28;20080;-48
2021/08/20 10:34:31;;;;;;;3.38;2.30;;;;;;;;;;5048026;28;20041;-49
2021/08/20 10:37:05;;;;;;;5.93;2.42;;;;;;;;;;5048599;28;20041;-52
2021/08/20 10:39:32;;;;;;;5.82;2.53;;;;;;;;;;5052267;28;20047;-54
2021/08/20 10:42:06;;;;;;;3.00;1.98;;;;;;;;;;5058173;28;20449;-50
2021/08/20 10:44:45;;;;;;;4.45;2.40;;;;;;;;;;5068258;28;20418;-51
2021/08/20 10:47:23;;;;;;;3.08;2.03;;;;;;;;;;5076613;27;20423;-51
2021/08/20 10:50:18;;;;;;;4.18;2.45;;;;;;;;;;5068256;28;20411;-52
2021/08/20 10:52:55;;;;;;;3.55;2.13;;;;;;;;;;5076530;28;20454;-56
2021/08/20 10:55:34;;;;;;;3.33;2.15;;;;;;;;;;5059321;28;20513;-55
2021/08/20 10:58:12;;;;;;;3.53;2.28;;;;;;;;;;5067962;28;20826;-56
2021/08/20 11:00:54;;;;;;;5.32;2.28;;;;;;;;;;5065940;28;20439;-52
2021/08/20 11:03:41;;;;;;;4.75;2.55;;;;;;;;;;5052735;28;20432;-51
2021/08/20 11:06:39;;;;;;;3.50;2.50;;;;;;;;;;5096033;27;20585;-56
2021/08/20 11:09:32;;;;;;;3.15;2.17;;;;;;;;;;5066155;28;20457;-54
2021/08/20 11:12:29;;;;;;;3.13;2.20;;;;;;;;;;5061265;28;20436;-54
2021/08/20 11:15:20;;;;;;;3.60;2.70;;;;;;;;;;5051043;28;20427;-52
2021/08/20 11:18:04;;;;;;;3.72;2.50;;;;;;;;;;5070091;28;20431;-53
2021/08/20 11:20:46;;;;;;;4.63;2.38;;;;;;;;;;5043193;28;20842;-54
2021/08/20 11:23:31;;;;;;;3.88;2.78;;;;;;;;;;5027755;28;20406;-53
2021/08/20 11:26:26;;;;;;;3.75;2.50;;;;;;;;;;5104868;27;20134;-55
2021/08/20 11:29:03;;;;;;;5.28;2.40;;;;;;;;;;5067020;28;20423;-56
2021/08/20 11:31:41;;;;;;;5.55;2.30;;;;;;;;;;5038774;28;20431;-54
2021/08/20 11:34:08;;;;;;;3.50;2.55;;;;;;;;;;5021680;28;20114;-50
2021/08/20 11:36:41;;;;;;;6.93;2.83;;;;;;;;;;5022938;28;20447;-53
2021/08/20 11:39:12;;;;;;;3.15;2.25;;;;;;;;;;5027604;28;20637;-54
2021/08/20 11:41:44;;;;;;;5.13;2.42;;;;;;;;;;5027005;28;20459;-50
2021/08/20 11:44:12;;;;;;;3.42;2.33;;;;;;;;;;5026681;28;20072;-54
2021/08/20 11:46:40;;;;;;;3.42;2.30;;;;;;;;;;5033836;28;20041;-51
2021/08/20 11:49:08;;;;;;;3.47;2.35;;;;;;;;;;5017254;28;20121;-50
2021/08/20 11:51:35;;;;;;;2.72;2.15;;;;;;;;;;5016172;28;20042;-53
2021/08/20 11:54:03;;;;;;;4.15;2.17;;;;;;;;;;5014293;28;20404;-52
2021/08/20 11:56:30;;;;;;;3.35;2.20;;;;;;;;;;5027242;28;20033;-53
2021/08/20 11:59:05;;;;;;;4.03;2.03;;;;;;;;;;5025958;28;20049;-53
2021/08/20 12:01:34;;;;;;;3.42;1.98;;;;;;;;;;5022271;28;20474;-52
2021/08/20 12:04:02;;;;;;;2.92;1.92;;;;;;;;;;5027021;28;20037;-53
2021/08/20 12:06:29;;;;;;;3.63;2.42;;;;;;;;;;5009705;28;20042;-50
2021/08/20 12:09:15;;;;;;;7.22;2.50;;;;;;;;;;5016553;28;20057;-54
2021/08/20 12:11:43;;;;;;;3.50;2.50;;;;;;;;;;5019101;28;20037;-56
2021/08/20 12:14:16;;;;;;;3.63;2.10;;;;;;;;;;5027611;28;20500;-53
2021/08/20 12:16:45;;;;;;;4.10;2.38;;;;;;;;;;5028282;28;20041;-55
2021/08/20 12:19:24;;;;;;;3.88;2.30;;;;;;;;;;5028143;28;20121;-56
2021/08/20 12:21:50;;;;;;;5.20;2.60;;;;;;;;;;5027540;28;20073;-53
2021/08/20 12:24:32;;;;;;;3.58;2.50;;;;;;;;;;5025759;28;20116;-56
2021/08/20 12:27:15;;;;;;;3.28;2.08;;;;;;;;;;5013397;28;20040;-54
2021/08/20 12:30:05;;;;;;;6.47;2.50;;;;;;;;;;5027373;28;20071;-53
2021/08/20 12:32:36;;;;;;;3.05;2.20;;;;;;;;;;5025270;28;20049;-52
2021/08/20 12:35:05;;;;;;;2.75;2.00;;;;;;;;;;5033426;28;20041;-54
2021/08/20 12:38:18;;;;;;;4.55;2.38;;;;;;;;;;5008552;28;20379;-55
2021/08/20 12:40:46;;;;;;;5.50;2.50;;;;;;;;;;5018385;28;20172;-55
2021/08/20 12:43:23;;;;;;;4.13;2.35;;;;;;;;;;5011994;28;20077;-49
2021/08/20 12:46:04;;;;;;;3.45;2.20;;;;;;;;;;5012569;28;20132;-55
2021/08/20 12:48:31;;;;;;;4.60;2.30;;;;;;;;;;5010029;28;20074;-52
2021/08/20 12:50:59;;;;;;;2.92;1.92;;;;;;;;;;5002734;28;20492;-49
2021/08/20 12:53:44;;;;;;;4.10;2.42;;;;;;;;;;4979768;28;20062;-54
2021/08/20 12:56:11;;;;;;;5.82;2.40;;;;;;;;;;5009157;28;20085;-49
2021/08/20 12:58:38;;;;;;;3.17;2.13;;;;;;;;;;5017530;28;20596;-52
2021/08/20 13:01:08;;;;;;;4.53;2.45;;;;;;;;;;5001481;28;20511;-56
2021/08/20 13:03:36;;;;;;;4.45;2.33;;;;;;;;;;4999589;28;20125;-53
2021/08/20 13:06:06;;;;;;;8.18;3.95;;;;;;;;;;5003548;28;20054;-51
2021/08/20 13:08:34;;;;;;;3.92;2.30;;;;;;;;;;5000416;28;20058;-54
2021/08/20 13:11:02;;;;;;;3.38;2.47;;;;;;;;;;5000989;28;20538;-54
2021/08/20 13:13:29;;;;;;;4.03;2.10;;;;;;;;;;4998473;28;20117;-49
2021/08/20 13:15:56;;;;;;;4.45;2.22;;;;;;;;;;4997997;28;20547;-50
2021/08/20 13:18:23;;;;;;;3.40;2.30;;;;;;;;;;5001631;28;20046;-51
2021/08/20 13:20:51;;;;;;;4.90;3.00;;;;;;;;;;5001060;28;20053;-51
2021/08/20 13:23:18;;;;;;;4.05;2.70;;;;;;;;;;5000275;28;20081;-52
2021/08/20 13:25:45;;;;;;;4.55;3.30;;;;;;;;;;4995371;28;20064;-54
2021/08/20 13:28:12;;;;;;;6.50;4.05;;;;;;;;;;4998536;28;20081;-53
2021/08/20 13:30:40;;;;;;;5.40;3.47;;;;;;;;;;4998799;28;20463;-50
2021/08/20 13:33:07;;;;;;;4.25;2.63;;;;;;;;;;5001980;28;20061;-52
2021/08/20 13:35:34;;;;;;;4.35;2.20;;;;;;;;;;5001994;28;20788;-51
2021/08/20 13:38:01;;;;;;;3.53;2.42;;;;;;;;;;4997389;28;20049;-51
2021/08/20 13:40:29;;;;;;;4.50;2.47;;;;;;;;;;5003495;28;20076;-55
2021/08/20 13:42:57;;;;;;;3.78;2.53;;;;;;;;;;4996761;28;20461;-54
2021/08/20 13:45:24;;;;;;;3.15;2.28;;;;;;;;;;5004130;28;20518;-52
2021/08/20 13:47:53;;;;;;;3.55;2.47;;;;;;;;;;4999333;28;20046;-49
2021/08/20 13:50:21;;;;;;;6.05;2.45;;;;;;;;;;4999715;28;20515;-54
2021/08/20 13:52:48;;;;;;;3.70;2.40;;;;;;;;;;4997536;28;20050;-51
2021/08/20 13:55:15;;;;;;;3.55;2.30;;;;;;;;;;4996774;28;20052;-52
2021/08/20 13:57:42;;;;;;;3.67;2.45;;;;;;;;;;4999819;28;20080;-51
2021/08/20 14:00:09;;;;;;;2.97;1.95;;;;;;;;;;4999408;28;20046;-51
2021/08/20 14:02:36;;;;;;;3.65;2.15;;;;;;;;;;5004030;28;20476;-49
2021/08/20 14:05:04;;;;;;;2.70;2.10;;;;;;;;;;4996040;28;20042;-54
2021/08/20 14:07:31;;;;;;;3.40;2.40;;;;;;;;;;4992541;28;20043;-48
2021/08/20 14:09:58;;;;;;;3.40;2.35;;;;;;;;;;4992603;28;20049;-49
2021/08/20 14:12:25;;;;;;;3.15;2.30;;;;;;;;;;4992565;28;20042;-51
2021/08/20 14:14:51;;;;;;;4.63;2.30;;;;;;;;;;4992287;28;20042;-51
2021/08/20 14:17:18;;;;;;;4.72;2.55;;;;;;;;;;4992847;28;20053;-53
2021/08/20 14:19:45;;;;;;;3.38;2.50;;;;;;;;;;4992833;28;20051;-52
2021/08/20 14:22:12;;;;;;;4.28;2.35;;;;;;;;;;4992605;28;20046;-53
2021/08/20 14:24:38;;;;;;;3.63;2.45;;;;;;;;;;4992233;28;20042;-53
2021/08/20 14:27:05;;;;;;;5.03;3.00;;;;;;;;;;4991960;28;20133;-52
2021/08/20 14:29:32;;;;;;;4.43;2.47;;;;;;;;;;4992290;28;20050;-53
2021/08/20 14:31:59;;;;;;;3.97;2.45;;;;;;;;;;4992193;28;20451;-56
2021/08/20 14:34:26;;;;;;;5.57;2.55;;;;;;;;;;4992100;28;20527;-50
2021/08/20 14:36:53;;;;;;;4.35;2.88;;;;;;;;;;4992423;28;20042;-56
2021/08/20 14:39:20;;;;;;;4.28;2.55;;;;;;;;;;4992073;28;20038;-50
2021/08/20 14:41:47;;;;;;;3.42;2.38;;;;;;;;;;4992092;28;20133;-53
2021/08/20 14:44:13;;;;;;;3.50;2.53;;;;;;;;;;4992148;28;20392;-51
2021/08/20 14:46:40;;;;;;;5.15;3.35;;;;;;;;;;4990453;28;20050;-53
2021/08/20 14:49:07;;;;;;;3.75;2.47;;;;;;;;;;4991883;28;20137;-50
2021/08/20 14:51:34;;;;;;;3.55;2.53;;;;;;;;;;4991955;28;20046;-52
2021/08/20 14:54:01;;;;;;;4.10;2.60;;;;;;;;;;4991515;28;20412;-53
2021/08/20 14:56:28;;;;;;;4.82;2.28;;;;;;;;;;4991578;28;20186;-50
2021/08/20 14:58:54;;;;;;;3.85;2.63;;;;;;;;;;4990222;28;20101;-51
2021/08/20 15:01:21;;;;;;;4.78;2.30;;;;;;;;;;4990350;28;20393;-52
2021/08/20 15:03:48;;;;;;;5.97;2.75;;;;;;;;;;4991462;28;20044;-51
2021/08/20 15:06:19;;;;;;;4.00;3.00;;;;;;;;;;4973710;28;20281;-50
2021/08/20 15:08:46;;;;;;;3.80;2.33;;;;;;;;;;4991443;28;20452;-53
2021/08/20 15:11:13;;;;;;;4.57;2.50;;;;;;;;;;4991559;28;20046;-51
2021/08/20 15:13:41;;;;;;;4.25;2.47;;;;;;;;;;4991246;28;20050;-50
2021/08/20 15:16:08;;;;;;;4.60;2.70;;;;;;;;;;4991783;28;20068;-51
2021/08/20 15:18:39;;;;;;;3.05;2.35;;;;;;;;;;4991601;28;20492;-51
2021/08/20 15:21:07;;;;;;;5.90;3.20;;;;;;;;;;4991940;28;20046;-55
2021/08/20 15:23:33;;;;;;;6.18;2.42;;;;;;;;;;4991422;28;20057;-51
2021/08/20 15:26:00;;;;;;;6.45;2.83;;;;;;;;;;4990665;28;20078;-52
2021/08/20 15:28:27;;;;;;;6.53;2.60;;;;;;;;;;4991514;28;20431;-55
2021/08/20 15:30:55;;;;;;;8.23;2.75;;;;;;;;;;4991250;28;20061;-51
2021/08/20 15:33:22;;;;;;;5.10;3.75;;;;;;;;;;4990822;28;20042;-50
2021/08/20 15:35:49;;;;;;;3.42;2.40;;;;;;;;;;4991341;28;20065;-52